sensor_id;sensor_type;location;lat;lon;timestamp;P1;durP1;ratioP1;P2;durP2;ratioP2
20154;SDS011;10238;49.556;10.956;2023-06-10T00:00:39;10.55;;;9.65;;
20154;SDS011;10238;49.556;10.956;2023-06-10T00:03:27;9.63;;;8.82;;
20154;SDS011;10238;49.556;10.956;2023-06-10T00:06:15;8.90;;;8.10;;
20154;SDS011;10238;49.556;10.956;2023-06-10T00:09:03;8.48;;;7.70;;
20154;SDS011;10238;49.556;10.956;2023-06-10T00:11:53;7.70;;;6.90;;
20154;SDS011;10238;49.556;10.956;2023-06-10T00:14:41;7.78;;;6.90;;
20154;SDS011;10238;49.556;10.956;2023-06-10T00:17:30;8.55;;;6.55;;
20154;SDS011;10238;49.556;10.956;2023-06-10T00:20:18;7.38;;;6.68;;
20154;SDS011;10238;49.556;10.956;2023-06-10T00:23:09;7.80;;;6.50;;
20154;SDS011;10238;49.556;10.956;2023-06-10T00:25:57;8.00;;;6.57;;
20154;SDS011;10238;49.556;10.956;2023-06-10T00:28:45;7.75;;;6.95;;
20154;SDS011;10238;49.556;10.956;2023-06-10T00:31:34;7.80;;;6.45;;
20154;SDS011;10238;49.556;10.956;2023-06-10T00:34:23;7.30;;;6.53;;
20154;SDS011;10238;49.556;10.956;2023-06-10T00:37:11;8.60;;;6.93;;
20154;SDS011;10238;49.556;10.956;2023-06-10T00:39:59;7.15;;;6.45;;
20154;SDS011;10238;49.556;10.956;2023-06-10T00:42:47;9.02;;;6.90;;
20154;SDS011;10238;49.556;10.956;2023-06-10T00:45:35;7.68;;;6.85;;
20154;SDS011;10238;49.556;10.956;2023-06-10T00:48:23;7.72;;;6.93;;
20154;SDS011;10238;49.556;10.956;2023-06-10T00:51:13;9.02;;;7.13;;
20154;SDS011;10238;49.556;10.956;2023-06-10T00:54:03;9.82;;;7.10;;
20154;SDS011;10238;49.556;10.956;2023-06-10T00:56:52;7.72;;;6.97;;
20154;SDS011;10238;49.556;10.956;2023-06-10T00:59:41;8.05;;;6.45;;
20154;SDS011;10238;49.556;10.956;2023-06-10T01:02:34;8.63;;;7.10;;
20154;SDS011;10238;49.556;10.956;2023-06-10T01:05:23;7.72;;;6.93;;
20154;SDS011;10238;49.556;10.956;2023-06-10T01:08:14;8.85;;;7.13;;
20154;SDS011;10238;49.556;10.956;2023-06-10T01:11:17;7.32;;;6.55;;
20154;SDS011;10238;49.556;10.956;2023-06-10T01:14:12;7.97;;;7.18;;
20154;SDS011;10238;49.556;10.956;2023-06-10T01:17:01;7.65;;;6.95;;
20154;SDS011;10238;49.556;10.956;2023-06-10T01:19:53;7.65;;;6.95;;
20154;SDS011;10238;49.556;10.956;2023-06-10T01:22:43;7.60;;;6.90;;
20154;SDS011;10238;49.556;10.956;2023-06-10T01:25:31;9.65;;;6.65;;
20154;SDS011;10238;49.556;10.956;2023-06-10T01:28:25;7.57;;;6.88;;
20154;SDS011;10238;49.556;10.956;2023-06-10T01:31:21;7.60;;;6.85;;
20154;SDS011;10238;49.556;10.956;2023-06-10T01:34:23;8.00;;;7.20;;
20154;SDS011;10238;49.556;10.956;2023-06-10T01:37:13;8.40;;;7.60;;
20154;SDS011;10238;49.556;10.956;2023-06-10T01:40:10;8.02;;;7.22;;
20154;SDS011;10238;49.556;10.956;2023-06-10T01:42:59;8.70;;;7.90;;
20154;SDS011;10238;49.556;10.956;2023-06-10T01:45:47;7.70;;;7.00;;
20154;SDS011;10238;49.556;10.956;2023-06-10T01:48:35;10.65;;;7.00;;
20154;SDS011;10238;49.556;10.956;2023-06-10T01:51:24;7.40;;;6.70;;
20154;SDS011;10238;49.556;10.956;2023-06-10T01:54:12;8.20;;;6.90;;
20154;SDS011;10238;49.556;10.956;2023-06-10T01:57:01;8.80;;;7.40;;
20154;SDS011;10238;49.556;10.956;2023-06-10T01:59:49;7.65;;;6.85;;
20154;SDS011;10238;49.556;10.956;2023-06-10T02:02:36;8.45;;;7.55;;
20154;SDS011;10238;49.556;10.956;2023-06-10T02:05:24;7.50;;;6.75;;
20154;SDS011;10238;49.556;10.956;2023-06-10T02:08:12;8.45;;;7.50;;
20154;SDS011;10238;49.556;10.956;2023-06-10T02:11:00;8.32;;;7.53;;
20154;SDS011;10238;49.556;10.956;2023-06-10T02:13:49;8.02;;;7.22;;
20154;SDS011;10238;49.556;10.956;2023-06-10T02:16:37;7.45;;;6.68;;
20154;SDS011;10238;49.556;10.956;2023-06-10T02:19:25;8.60;;;7.22;;
20154;SDS011;10238;49.556;10.956;2023-06-10T02:22:13;8.25;;;7.50;;
20154;SDS011;10238;49.556;10.956;2023-06-10T02:25:00;8.02;;;7.22;;
20154;SDS011;10238;49.556;10.956;2023-06-10T02:27:49;8.13;;;7.43;;
20154;SDS011;10238;49.556;10.956;2023-06-10T02:30:40;11.15;;;7.72;;
20154;SDS011;10238;49.556;10.956;2023-06-10T02:33:29;8.60;;;7.78;;
20154;SDS011;10238;49.556;10.956;2023-06-10T02:36:17;8.48;;;7.68;;
20154;SDS011;10238;49.556;10.956;2023-06-10T02:39:04;8.68;;;7.70;;
20154;SDS011;10238;49.556;10.956;2023-06-10T02:41:52;9.57;;;8.77;;
20154;SDS011;10238;49.556;10.956;2023-06-10T02:44:39;9.27;;;8.57;;
20154;SDS011;10238;49.556;10.956;2023-06-10T02:47:28;9.25;;;8.45;;
20154;SDS011;10238;49.556;10.956;2023-06-10T02:50:17;9.45;;;8.60;;
20154;SDS011;10238;49.556;10.956;2023-06-10T02:53:05;9.88;;;8.90;;
20154;SDS011;10238;49.556;10.956;2023-06-10T02:55:52;9.50;;;8.63;;
20154;SDS011;10238;49.556;10.956;2023-06-10T02:58:40;10.05;;;9.15;;
20154;SDS011;10238;49.556;10.956;2023-06-10T03:01:28;9.15;;;8.35;;
20154;SDS011;10238;49.556;10.956;2023-06-10T03:04:18;10.02;;;9.02;;
20154;SDS011;10238;49.556;10.956;2023-06-10T03:07:06;9.43;;;8.63;;
20154;SDS011;10238;49.556;10.956;2023-06-10T03:09:56;9.63;;;8.73;;
20154;SDS011;10238;49.556;10.956;2023-06-10T03:12:44;9.43;;;8.55;;
20154;SDS011;10238;49.556;10.956;2023-06-10T03:15:31;9.57;;;8.63;;
20154;SDS011;10238;49.556;10.956;2023-06-10T03:18:19;9.77;;;8.88;;
20154;SDS011;10238;49.556;10.956;2023-06-10T03:21:10;9.40;;;8.35;;
20154;SDS011;10238;49.556;10.956;2023-06-10T03:23:57;8.27;;;7.60;;
20154;SDS011;10238;49.556;10.956;2023-06-10T03:26:45;8.95;;;8.15;;
20154;SDS011;10238;49.556;10.956;2023-06-10T03:29:33;8.65;;;7.80;;
20154;SDS011;10238;49.556;10.956;2023-06-10T03:32:21;8.43;;;7.65;;
20154;SDS011;10238;49.556;10.956;2023-06-10T03:35:09;9.13;;;8.25;;
20154;SDS011;10238;49.556;10.956;2023-06-10T03:37:59;9.55;;;8.65;;
20154;SDS011;10238;49.556;10.956;2023-06-10T03:40:46;9.68;;;8.77;;
20154;SDS011;10238;49.556;10.956;2023-06-10T03:43:34;9.25;;;8.45;;
20154;SDS011;10238;49.556;10.956;2023-06-10T03:46:22;8.75;;;7.95;;
20154;SDS011;10238;49.556;10.956;2023-06-10T03:49:10;8.90;;;8.05;;
20154;SDS011;10238;49.556;10.956;2023-06-10T03:51:57;8.88;;;7.97;;
20154;SDS011;10238;49.556;10.956;2023-06-10T03:54:46;9.13;;;8.23;;
20154;SDS011;10238;49.556;10.956;2023-06-10T03:57:34;9.27;;;8.30;;
20154;SDS011;10238;49.556;10.956;2023-06-10T04:00:22;11.00;;;8.18;;
20154;SDS011;10238;49.556;10.956;2023-06-10T04:03:10;8.90;;;8.10;;
20154;SDS011;10238;49.556;10.956;2023-06-10T04:06:00;9.43;;;8.50;;
20154;SDS011;10238;49.556;10.956;2023-06-10T04:08:48;8.85;;;8.05;;
20154;SDS011;10238;49.556;10.956;2023-06-10T04:11:37;9.25;;;8.35;;
20154;SDS011;10238;49.556;10.956;2023-06-10T04:14:25;8.63;;;7.72;;
20154;SDS011;10238;49.556;10.956;2023-06-10T04:17:13;8.40;;;7.63;;
20154;SDS011;10238;49.556;10.956;2023-06-10T04:20:01;8.98;;;8.15;;
20154;SDS011;10238;49.556;10.956;2023-06-10T04:22:52;9.32;;;7.97;;
20154;SDS011;10238;49.556;10.956;2023-06-10T04:25:40;9.70;;;8.38;;
20154;SDS011;10238;49.556;10.956;2023-06-10T04:28:29;9.27;;;8.48;;
20154;SDS011;10238;49.556;10.956;2023-06-10T04:31:16;10.55;;;8.77;;
20154;SDS011;10238;49.556;10.956;2023-06-10T04:34:04;10.07;;;8.90;;
20154;SDS011;10238;49.556;10.956;2023-06-10T04:36:53;10.05;;;9.07;;
20154;SDS011;10238;49.556;10.956;2023-06-10T04:39:41;9.35;;;8.45;;
20154;SDS011;10238;49.556;10.956;2023-06-10T04:42:29;9.43;;;8.55;;
20154;SDS011;10238;49.556;10.956;2023-06-10T04:45:17;11.55;;;9.23;;
20154;SDS011;10238;49.556;10.956;2023-06-10T04:48:05;11.43;;;9.13;;
20154;SDS011;10238;49.556;10.956;2023-06-10T04:50:53;10.30;;;9.32;;
20154;SDS011;10238;49.556;10.956;2023-06-10T04:53:42;10.70;;;9.60;;
20154;SDS011;10238;49.556;10.956;2023-06-10T04:56:30;10.32;;;9.32;;
20154;SDS011;10238;49.556;10.956;2023-06-10T04:59:18;9.88;;;8.95;;
20154;SDS011;10238;49.556;10.956;2023-06-10T05:02:06;10.10;;;9.10;;
20154;SDS011;10238;49.556;10.956;2023-06-10T05:04:54;10.80;;;9.65;;
20154;SDS011;10238;49.556;10.956;2023-06-10T05:07:43;10.43;;;8.88;;
20154;SDS011;10238;49.556;10.956;2023-06-10T05:10:31;11.52;;;9.38;;
20154;SDS011;10238;49.556;10.956;2023-06-10T05:13:19;9.75;;;8.90;;
20154;SDS011;10238;49.556;10.956;2023-06-10T05:16:07;10.30;;;9.40;;
20154;SDS011;10238;49.556;10.956;2023-06-10T05:18:56;10.32;;;9.30;;
20154;SDS011;10238;49.556;10.956;2023-06-10T05:21:50;10.88;;;9.52;;
20154;SDS011;10238;49.556;10.956;2023-06-10T05:24:38;10.15;;;9.15;;
20154;SDS011;10238;49.556;10.956;2023-06-10T05:27:25;10.15;;;9.13;;
20154;SDS011;10238;49.556;10.956;2023-06-10T05:30:13;10.40;;;9.13;;
20154;SDS011;10238;49.556;10.956;2023-06-10T05:33:01;10.73;;;8.73;;
20154;SDS011;10238;49.556;10.956;2023-06-10T05:35:54;10.32;;;9.27;;
20154;SDS011;10238;49.556;10.956;2023-06-10T05:38:41;10.07;;;9.07;;
20154;SDS011;10238;49.556;10.956;2023-06-10T05:41:29;11.38;;;8.65;;
20154;SDS011;10238;49.556;10.956;2023-06-10T05:44:16;9.32;;;8.38;;
20154;SDS011;10238;49.556;10.956;2023-06-10T05:47:04;10.70;;;9.60;;
20154;SDS011;10238;49.556;10.956;2023-06-10T05:49:52;9.65;;;8.48;;
20154;SDS011;10238;49.556;10.956;2023-06-10T05:52:41;10.85;;;9.10;;
20154;SDS011;10238;49.556;10.956;2023-06-10T05:55:33;10.07;;;8.40;;
20154;SDS011;10238;49.556;10.956;2023-06-10T05:58:21;9.43;;;8.43;;
20154;SDS011;10238;49.556;10.956;2023-06-10T06:01:10;9.43;;;8.52;;
20154;SDS011;10238;49.556;10.956;2023-06-10T06:03:57;9.38;;;8.38;;
20154;SDS011;10238;49.556;10.956;2023-06-10T06:06:45;9.93;;;8.48;;
20154;SDS011;10238;49.556;10.956;2023-06-10T06:09:41;10.68;;;8.73;;
20154;SDS011;10238;49.556;10.956;2023-06-10T06:12:28;9.82;;;8.65;;
20154;SDS011;10238;49.556;10.956;2023-06-10T06:15:16;10.10;;;9.10;;
20154;SDS011;10238;49.556;10.956;2023-06-10T06:18:07;9.43;;;8.40;;
20154;SDS011;10238;49.556;10.956;2023-06-10T06:20:55;10.77;;;8.70;;
20154;SDS011;10238;49.556;10.956;2023-06-10T06:24:10;11.50;;;8.75;;
20154;SDS011;10238;49.556;10.956;2023-06-10T06:27:16;11.13;;;9.88;;
20154;SDS011;10238;49.556;10.956;2023-06-10T06:34:11;10.30;;;9.25;;
20154;SDS011;10238;49.556;10.956;2023-06-10T06:37:01;9.63;;;8.73;;
20154;SDS011;10238;49.556;10.956;2023-06-10T06:39:58;10.50;;;9.27;;
20154;SDS011;10238;49.556;10.956;2023-06-10T06:42:51;11.27;;;10.32;;
20154;SDS011;10238;49.556;10.956;2023-06-10T06:45:52;9.15;;;8.25;;
20154;SDS011;10238;49.556;10.956;2023-06-10T06:49:16;10.85;;;9.82;;
20154;SDS011;10238;49.556;10.956;2023-06-10T06:52:08;11.25;;;10.35;;
20154;SDS011;10238;49.556;10.956;2023-06-10T06:54:56;10.88;;;9.70;;
20154;SDS011;10238;49.556;10.956;2023-06-10T06:57:43;11.20;;;10.30;;
20154;SDS011;10238;49.556;10.956;2023-06-10T07:00:32;20.52;;;19.13;;
20154;SDS011;10238;49.556;10.956;2023-06-10T07:03:20;9.88;;;8.35;;
20154;SDS011;10238;49.556;10.956;2023-06-10T07:06:12;10.52;;;9.63;;
20154;SDS011;10238;49.556;10.956;2023-06-10T07:09:00;8.00;;;7.30;;
20154;SDS011;10238;49.556;10.956;2023-06-10T07:11:47;13.27;;;12.18;;
20154;SDS011;10238;49.556;10.956;2023-06-10T07:14:47;13.38;;;12.30;;
20154;SDS011;10238;49.556;10.956;2023-06-10T07:17:57;11.75;;;10.57;;
20154;SDS011;10238;49.556;10.956;2023-06-10T07:20:45;11.23;;;10.32;;
20154;SDS011;10238;49.556;10.956;2023-06-10T07:23:37;8.70;;;8.00;;
20154;SDS011;10238;49.556;10.956;2023-06-10T07:29:44;11.18;;;10.18;;
20154;SDS011;10238;49.556;10.956;2023-06-10T07:32:32;8.43;;;7.63;;
20154;SDS011;10238;49.556;10.956;2023-06-10T07:35:21;8.32;;;7.22;;
20154;SDS011;10238;49.556;10.956;2023-06-10T07:38:09;9.55;;;8.82;;
20154;SDS011;10238;49.556;10.956;2023-06-10T07:40:56;9.40;;;8.60;;
20154;SDS011;10238;49.556;10.956;2023-06-10T07:43:44;7.82;;;7.13;;
20154;SDS011;10238;49.556;10.956;2023-06-10T07:46:32;8.80;;;7.82;;
20154;SDS011;10238;49.556;10.956;2023-06-10T07:49:20;7.97;;;7.38;;
20154;SDS011;10238;49.556;10.956;2023-06-10T07:52:09;8.73;;;8.02;;
20154;SDS011;10238;49.556;10.956;2023-06-10T07:54:57;9.65;;;8.75;;
20154;SDS011;10238;49.556;10.956;2023-06-10T07:57:45;8.60;;;7.85;;
20154;SDS011;10238;49.556;10.956;2023-06-10T08:00:32;7.82;;;7.22;;
20154;SDS011;10238;49.556;10.956;2023-06-10T08:03:20;8.73;;;8.02;;
20154;SDS011;10238;49.556;10.956;2023-06-10T08:06:08;11.02;;;10.13;;
20154;SDS011;10238;49.556;10.956;2023-06-10T08:08:58;9.95;;;9.23;;
20154;SDS011;10238;49.556;10.956;2023-06-10T08:11:46;16.92;;;15.93;;
20154;SDS011;10238;49.556;10.956;2023-06-10T08:14:34;22.15;;;20.88;;
20154;SDS011;10238;49.556;10.956;2023-06-10T08:17:22;20.95;;;19.85;;
20154;SDS011;10238;49.556;10.956;2023-06-10T08:20:10;19.10;;;17.90;;
20154;SDS011;10238;49.556;10.956;2023-06-10T08:22:57;17.80;;;16.80;;
20154;SDS011;10238;49.556;10.956;2023-06-10T08:25:47;32.28;;;30.60;;
20154;SDS011;10238;49.556;10.956;2023-06-10T08:28:34;12.00;;;11.30;;
20154;SDS011;10238;49.556;10.956;2023-06-10T08:31:22;7.10;;;6.50;;
20154;SDS011;10238;49.556;10.956;2023-06-10T08:34:10;19.13;;;18.17;;
20154;SDS011;10238;49.556;10.956;2023-06-10T08:36:57;41.50;;;39.60;;
20154;SDS011;10238;49.556;10.956;2023-06-10T08:39:50;29.15;;;27.77;;
20154;SDS011;10238;49.556;10.956;2023-06-10T08:42:40;35.75;;;34.15;;
20154;SDS011;10238;49.556;10.956;2023-06-10T08:45:36;37.95;;;36.25;;
20154;SDS011;10238;49.556;10.956;2023-06-10T08:48:24;21.38;;;20.35;;
20154;SDS011;10238;49.556;10.956;2023-06-10T08:51:17;14.15;;;13.32;;
20154;SDS011;10238;49.556;10.956;2023-06-10T08:54:18;7.47;;;6.97;;
20154;SDS011;10238;49.556;10.956;2023-06-10T08:57:11;6.30;;;5.90;;
20154;SDS011;10238;49.556;10.956;2023-06-10T09:00:02;9.95;;;9.45;;
20154;SDS011;10238;49.556;10.956;2023-06-10T09:02:54;6.90;;;6.35;;
20154;SDS011;10238;49.556;10.956;2023-06-10T09:05:46;7.00;;;6.38;;
20154;SDS011;10238;49.556;10.956;2023-06-10T09:08:35;6.55;;;5.60;;
20154;SDS011;10238;49.556;10.956;2023-06-10T09:11:25;5.50;;;5.10;;
20154;SDS011;10238;49.556;10.956;2023-06-10T09:14:14;6.07;;;5.68;;
20154;SDS011;10238;49.556;10.956;2023-06-10T09:17:04;5.45;;;4.95;;
20154;SDS011;10238;49.556;10.956;2023-06-10T09:19:53;5.78;;;5.40;;
20154;SDS011;10238;49.556;10.956;2023-06-10T09:22:42;6.75;;;6.25;;
20154;SDS011;10238;49.556;10.956;2023-06-10T09:25:35;7.70;;;7.20;;
20154;SDS011;10238;49.556;10.956;2023-06-10T09:28:24;6.22;;;5.82;;
20154;SDS011;10238;49.556;10.956;2023-06-10T09:31:12;3.97;;;3.60;;
20154;SDS011;10238;49.556;10.956;2023-06-10T09:34:06;4.28;;;3.88;;
20154;SDS011;10238;49.556;10.956;2023-06-10T09:36:57;3.67;;;3.38;;
20154;SDS011;10238;49.556;10.956;2023-06-10T09:40:00;3.40;;;3.10;;
20154;SDS011;10238;49.556;10.956;2023-06-10T09:42:52;3.70;;;3.30;;
20154;SDS011;10238;49.556;10.956;2023-06-10T09:45:42;4.20;;;3.90;;
20154;SDS011;10238;49.556;10.956;2023-06-10T09:48:30;3.97;;;3.67;;
20154;SDS011;10238;49.556;10.956;2023-06-10T09:51:24;3.55;;;3.25;;
20154;SDS011;10238;49.556;10.956;2023-06-10T09:54:12;3.92;;;3.63;;
20154;SDS011;10238;49.556;10.956;2023-06-10T09:57:00;5.10;;;3.67;;
20154;SDS011;10238;49.556;10.956;2023-06-10T09:59:55;3.75;;;3.50;;
20154;SDS011;10238;49.556;10.956;2023-06-10T10:02:44;4.65;;;4.35;;
20154;SDS011;10238;49.556;10.956;2023-06-10T10:05:33;3.75;;;3.35;;
20154;SDS011;10238;49.556;10.956;2023-06-10T10:08:23;4.28;;;3.88;;
20154;SDS011;10238;49.556;10.956;2023-06-10T10:11:11;5.03;;;3.90;;
20154;SDS011;10238;49.556;10.956;2023-06-10T10:14:01;4.70;;;3.47;;
20154;SDS011;10238;49.556;10.956;2023-06-10T10:16:55;4.10;;;3.75;;
20154;SDS011;10238;49.556;10.956;2023-06-10T10:19:46;4.32;;;3.67;;
20154;SDS011;10238;49.556;10.956;2023-06-10T10:22:37;4.68;;;4.28;;
20154;SDS011;10238;49.556;10.956;2023-06-10T10:25:29;4.22;;;3.83;;
20154;SDS011;10238;49.556;10.956;2023-06-10T10:28:24;4.18;;;3.88;;
20154;SDS011;10238;49.556;10.956;2023-06-10T10:31:25;4.50;;;4.20;;
20154;SDS011;10238;49.556;10.956;2023-06-10T10:34:18;5.30;;;4.80;;
20154;SDS011;10238;49.556;10.956;2023-06-10T10:37:13;5.55;;;5.05;;
20154;SDS011;10238;49.556;10.956;2023-06-10T10:40:02;3.90;;;3.60;;
20154;SDS011;10238;49.556;10.956;2023-06-10T10:42:55;3.72;;;3.45;;
20154;SDS011;10238;49.556;10.956;2023-06-10T10:45:45;5.45;;;5.15;;
20154;SDS011;10238;49.556;10.956;2023-06-10T10:48:45;6.13;;;5.72;;
20154;SDS011;10238;49.556;10.956;2023-06-10T10:51:44;5.82;;;5.43;;
20154;SDS011;10238;49.556;10.956;2023-06-10T10:54:43;6.15;;;5.75;;
20154;SDS011;10238;49.556;10.956;2023-06-10T10:57:33;5.63;;;5.23;;
20154;SDS011;10238;49.556;10.956;2023-06-10T11:00:31;6.10;;;5.80;;
20154;SDS011;10238;49.556;10.956;2023-06-10T11:03:27;5.03;;;4.72;;
20154;SDS011;10238;49.556;10.956;2023-06-10T11:06:18;4.43;;;4.13;;
20154;SDS011;10238;49.556;10.956;2023-06-10T11:12:13;5.13;;;4.82;;
20154;SDS011;10238;49.556;10.956;2023-06-10T11:15:10;4.13;;;3.80;;
20154;SDS011;10238;49.556;10.956;2023-06-10T11:18:10;5.35;;;5.03;;
20154;SDS011;10238;49.556;10.956;2023-06-10T11:21:22;6.60;;;6.00;;
20154;SDS011;10238;49.556;10.956;2023-06-10T11:24:13;5.40;;;5.00;;
20154;SDS011;10238;49.556;10.956;2023-06-10T11:27:14;5.60;;;5.10;;
20154;SDS011;10238;49.556;10.956;2023-06-10T11:30:17;6.30;;;5.90;;
20154;SDS011;10238;49.556;10.956;2023-06-10T11:36:42;6.80;;;6.30;;
20154;SDS011;10238;49.556;10.956;2023-06-10T11:39:31;5.82;;;5.32;;
20154;SDS011;10238;49.556;10.956;2023-06-10T11:42:23;4.85;;;4.55;;
20154;SDS011;10238;49.556;10.956;2023-06-10T11:45:14;4.68;;;4.38;;
20154;SDS011;10238;49.556;10.956;2023-06-10T11:48:03;5.13;;;4.72;;
20154;SDS011;10238;49.556;10.956;2023-06-10T11:50:52;4.43;;;4.13;;
20154;SDS011;10238;49.556;10.956;2023-06-10T11:53:40;5.13;;;4.65;;
20154;SDS011;10238;49.556;10.956;2023-06-10T11:56:31;4.32;;;4.03;;
20154;SDS011;10238;49.556;10.956;2023-06-10T11:59:21;5.00;;;4.60;;
20154;SDS011;10238;49.556;10.956;2023-06-10T12:02:14;5.22;;;4.82;;
20154;SDS011;10238;49.556;10.956;2023-06-10T12:05:09;5.88;;;5.45;;
20154;SDS011;10238;49.556;10.956;2023-06-10T12:08:09;5.18;;;4.78;;
20154;SDS011;10238;49.556;10.956;2023-06-10T12:10:58;4.43;;;4.03;;
20154;SDS011;10238;49.556;10.956;2023-06-10T12:13:47;5.53;;;5.03;;
20154;SDS011;10238;49.556;10.956;2023-06-10T12:16:37;4.68;;;4.28;;
20154;SDS011;10238;49.556;10.956;2023-06-10T12:19:24;5.88;;;5.47;;
20154;SDS011;10238;49.556;10.956;2023-06-10T12:22:12;4.85;;;4.45;;
20154;SDS011;10238;49.556;10.956;2023-06-10T12:25:03;4.32;;;4.03;;
20154;SDS011;10238;49.556;10.956;2023-06-10T12:27:54;4.13;;;3.80;;
20154;SDS011;10238;49.556;10.956;2023-06-10T12:30:44;4.82;;;4.43;;
20154;SDS011;10238;49.556;10.956;2023-06-10T12:33:32;5.72;;;5.35;;
20154;SDS011;10238;49.556;10.956;2023-06-10T12:36:20;6.07;;;5.68;;
20154;SDS011;10238;49.556;10.956;2023-06-10T12:39:07;6.70;;;6.30;;
20154;SDS011;10238;49.556;10.956;2023-06-10T12:41:57;5.68;;;5.38;;
20154;SDS011;10238;49.556;10.956;2023-06-10T12:44:46;5.32;;;5.03;;
20154;SDS011;10238;49.556;10.956;2023-06-10T12:47:46;6.30;;;5.90;;
20154;SDS011;10238;49.556;10.956;2023-06-10T12:50:34;5.40;;;5.00;;
20154;SDS011;10238;49.556;10.956;2023-06-10T12:53:24;4.07;;;3.78;;
20154;SDS011;10238;49.556;10.956;2023-06-10T12:56:13;4.20;;;3.90;;
20154;SDS011;10238;49.556;10.956;2023-06-10T12:59:02;3.90;;;3.70;;
20154;SDS011;10238;49.556;10.956;2023-06-10T13:01:54;3.53;;;3.33;;
20154;SDS011;10238;49.556;10.956;2023-06-10T13:04:43;3.45;;;3.25;;
20154;SDS011;10238;49.556;10.956;2023-06-10T13:07:31;3.70;;;3.38;;
20154;SDS011;10238;49.556;10.956;2023-06-10T13:10:18;3.42;;;3.13;;
20154;SDS011;10238;49.556;10.956;2023-06-10T13:16:01;3.28;;;3.00;;
20154;SDS011;10238;49.556;10.956;2023-06-10T13:18:49;4.68;;;4.38;;
20154;SDS011;10238;49.556;10.956;2023-06-10T13:21:37;6.20;;;4.07;;
20154;SDS011;10238;49.556;10.956;2023-06-10T13:24:26;3.90;;;3.70;;
20154;SDS011;10238;49.556;10.956;2023-06-10T13:27:14;4.47;;;4.07;;
20154;SDS011;10238;49.556;10.956;2023-06-10T13:30:02;3.95;;;3.65;;
20154;SDS011;10238;49.556;10.956;2023-06-10T13:32:52;4.10;;;3.70;;
20154;SDS011;10238;49.556;10.956;2023-06-10T13:35:39;4.03;;;3.50;;
20154;SDS011;10238;49.556;10.956;2023-06-10T13:38:27;7.18;;;3.67;;
20154;SDS011;10238;49.556;10.956;2023-06-10T13:41:15;3.50;;;3.20;;
20154;SDS011;10238;49.556;10.956;2023-06-10T13:44:03;5.45;;;3.42;;
20154;SDS011;10238;49.556;10.956;2023-06-10T13:46:52;4.15;;;2.85;;
20154;SDS011;10238;49.556;10.956;2023-06-10T13:49:41;3.97;;;3.67;;
20154;SDS011;10238;49.556;10.956;2023-06-10T13:52:29;4.43;;;3.70;;
20154;SDS011;10238;49.556;10.956;2023-06-10T13:55:17;4.30;;;4.00;;
20154;SDS011;10238;49.556;10.956;2023-06-10T13:58:05;4.13;;;3.63;;
20154;SDS011;10238;49.556;10.956;2023-06-10T14:00:53;7.55;;;3.60;;
20154;SDS011;10238;49.556;10.956;2023-06-10T14:03:41;3.97;;;3.53;;
20154;SDS011;10238;49.556;10.956;2023-06-10T14:06:32;3.30;;;3.10;;
20154;SDS011;10238;49.556;10.956;2023-06-10T14:09:20;5.20;;;2.97;;
20154;SDS011;10238;49.556;10.956;2023-06-10T14:12:09;3.45;;;3.25;;
20154;SDS011;10238;49.556;10.956;2023-06-10T14:14:56;3.38;;;3.13;;
20154;SDS011;10238;49.556;10.956;2023-06-10T14:17:44;3.58;;;3.38;;
20154;SDS011;10238;49.556;10.956;2023-06-10T14:20:32;3.83;;;3.03;;
20154;SDS011;10238;49.556;10.956;2023-06-10T14:23:21;2.92;;;2.72;;
20154;SDS011;10238;49.556;10.956;2023-06-10T14:26:10;3.45;;;3.20;;
20154;SDS011;10238;49.556;10.956;2023-06-10T14:28:58;3.22;;;2.97;;
20154;SDS011;10238;49.556;10.956;2023-06-10T14:31:46;4.20;;;3.28;;
20154;SDS011;10238;49.556;10.956;2023-06-10T14:34:33;3.42;;;3.13;;
20154;SDS011;10238;49.556;10.956;2023-06-10T14:37:24;3.60;;;3.40;;
20154;SDS011;10238;49.556;10.956;2023-06-10T14:40:14;4.03;;;3.67;;
20154;SDS011;10238;49.556;10.956;2023-06-10T14:43:02;4.15;;;3.90;;
20154;SDS011;10238;49.556;10.956;2023-06-10T14:45:55;4.72;;;2.88;;
20154;SDS011;10238;49.556;10.956;2023-06-10T14:48:43;4.30;;;4.00;;
20154;SDS011;10238;49.556;10.956;2023-06-10T14:51:31;6.60;;;6.00;;
20154;SDS011;10238;49.556;10.956;2023-06-10T14:54:22;5.30;;;3.47;;
20154;SDS011;10238;49.556;10.956;2023-06-10T14:57:13;9.43;;;3.60;;
20154;SDS011;10238;49.556;10.956;2023-06-10T15:00:02;2.80;;;2.50;;
20154;SDS011;10238;49.556;10.956;2023-06-10T15:02:52;3.17;;;2.60;;
20154;SDS011;10238;49.556;10.956;2023-06-10T15:05:41;5.03;;;4.07;;
20154;SDS011;10238;49.556;10.956;2023-06-10T15:08:29;3.13;;;2.92;;
20154;SDS011;10238;49.556;10.956;2023-06-10T15:11:17;3.40;;;3.10;;
20154;SDS011;10238;49.556;10.956;2023-06-10T15:14:06;3.42;;;3.10;;
20154;SDS011;10238;49.556;10.956;2023-06-10T15:16:54;3.00;;;2.80;;
20154;SDS011;10238;49.556;10.956;2023-06-10T15:19:44;3.33;;;3.03;;
20154;SDS011;10238;49.556;10.956;2023-06-10T15:22:32;3.60;;;3.30;;
20154;SDS011;10238;49.556;10.956;2023-06-10T15:25:24;30.02;;;25.80;;
20154;SDS011;10238;49.556;10.956;2023-06-10T15:28:16;43.50;;;22.48;;
20154;SDS011;10238;49.556;10.956;2023-06-10T15:31:06;9.25;;;8.23;;
20154;SDS011;10238;49.556;10.956;2023-06-10T15:33:53;6.55;;;5.95;;
20154;SDS011;10238;49.556;10.956;2023-06-10T15:36:41;10.75;;;6.90;;
20154;SDS011;10238;49.556;10.956;2023-06-10T15:39:29;13.68;;;11.38;;
20154;SDS011;10238;49.556;10.956;2023-06-10T15:42:33;14.95;;;8.95;;
20154;SDS011;10238;49.556;10.956;2023-06-10T15:45:21;16.30;;;11.27;;
20154;SDS011;10238;49.556;10.956;2023-06-10T15:48:08;13.27;;;11.00;;
20154;SDS011;10238;49.556;10.956;2023-06-10T15:50:56;11.27;;;9.32;;
20154;SDS011;10238;49.556;10.956;2023-06-10T15:53:44;10.73;;;8.68;;
20154;SDS011;10238;49.556;10.956;2023-06-10T15:56:32;11.35;;;9.70;;
20154;SDS011;10238;49.556;10.956;2023-06-10T15:59:21;9.55;;;8.68;;
20154;SDS011;10238;49.556;10.956;2023-06-10T16:02:09;11.45;;;10.45;;
20154;SDS011;10238;49.556;10.956;2023-06-10T16:04:57;11.27;;;10.35;;
20154;SDS011;10238;49.556;10.956;2023-06-10T16:07:45;11.48;;;9.63;;
20154;SDS011;10238;49.556;10.956;2023-06-10T16:10:33;9.32;;;8.60;;
20154;SDS011;10238;49.556;10.956;2023-06-10T16:13:21;9.35;;;8.55;;
20154;SDS011;10238;49.556;10.956;2023-06-10T16:16:10;10.18;;;9.38;;
20154;SDS011;10238;49.556;10.956;2023-06-10T16:18:58;12.35;;;11.38;;
20154;SDS011;10238;49.556;10.956;2023-06-10T16:21:46;12.05;;;11.15;;
20154;SDS011;10238;49.556;10.956;2023-06-10T16:24:34;11.65;;;10.75;;
20154;SDS011;10238;49.556;10.956;2023-06-10T16:27:22;16.40;;;15.25;;
20154;SDS011;10238;49.556;10.956;2023-06-10T16:30:11;14.27;;;13.27;;
20154;SDS011;10238;49.556;10.956;2023-06-10T16:33:01;11.05;;;10.15;;
20154;SDS011;10238;49.556;10.956;2023-06-10T16:35:50;11.60;;;10.60;;
20154;SDS011;10238;49.556;10.956;2023-06-10T16:38:38;10.10;;;9.30;;
20154;SDS011;10238;49.556;10.956;2023-06-10T16:41:26;9.98;;;9.10;;
20154;SDS011;10238;49.556;10.956;2023-06-10T16:44:13;12.93;;;11.95;;
20154;SDS011;10238;49.556;10.956;2023-06-10T16:47:02;10.15;;;9.35;;
20154;SDS011;10238;49.556;10.956;2023-06-10T16:49:53;7.35;;;6.65;;
20154;SDS011;10238;49.556;10.956;2023-06-10T16:52:40;7.47;;;6.82;;
20154;SDS011;10238;49.556;10.956;2023-06-10T16:55:28;7.57;;;6.60;;
20154;SDS011;10238;49.556;10.956;2023-06-10T16:58:16;7.97;;;7.18;;
20154;SDS011;10238;49.556;10.956;2023-06-10T17:01:04;8.70;;;8.00;;